createdAt,value
2018-09-24T00:01:22.685Z,99.90
2018-09-24T00:03:51.165Z,99.90
2018-09-24T00:06:19.709Z,99.90
2018-09-24T00:08:48.211Z,99.90
2018-09-24T00:11:16.696Z,99.90
2018-09-24T00:13:45.256Z,99.90
2018-09-24T00:16:13.804Z,99.90
2018-09-24T00:18:42.296Z,99.90
2018-09-24T00:21:10.844Z,99.90
2018-09-24T00:23:39.387Z,99.90
2018-09-24T00:26:07.920Z,99.90
2018-09-24T00:28:36.483Z,99.90
2018-09-24T00:31:05.129Z,99.90
2018-09-24T00:33:33.632Z,99.90
2018-09-24T00:36:02.207Z,99.90
2018-09-24T00:38:30.680Z,99.90
2018-09-24T00:40:59.267Z,99.90
2018-09-24T00:43:27.858Z,99.90
2018-09-24T00:45:56.336Z,99.90
2018-09-24T00:48:24.861Z,99.90
2018-09-24T00:50:53.352Z,99.90
2018-09-24T00:53:21.880Z,99.90
2018-09-24T00:55:50.388Z,99.90
2018-09-24T00:58:18.927Z,99.90
2018-09-24T01:00:47.407Z,99.90
2018-09-24T01:03:15.947Z,99.90
2018-09-24T01:05:44.460Z,99.90
2018-09-24T01:08:12.974Z,99.90
2018-09-24T01:10:41.487Z,99.90
2018-09-24T01:13:09.987Z,99.90
2018-09-24T01:15:38.480Z,99.90
2018-09-24T01:18:07.029Z,99.90
2018-09-24T01:20:35.571Z,99.90
2018-09-24T01:23:04.127Z,99.90
2018-09-24T01:25:32.600Z,99.90
2018-09-24T01:28:01.099Z,99.90
2018-09-24T01:30:29.663Z,99.90
2018-09-24T01:32:58.174Z,99.90
2018-09-24T01:35:26.728Z,99.90
2018-09-24T01:37:55.228Z,99.90
2018-09-24T01:40:23.751Z,99.90
2018-09-24T01:42:52.267Z,99.90
2018-09-24T01:45:20.806Z,99.90
2018-09-24T01:47:49.343Z,99.90
2018-09-24T01:50:17.856Z,99.90
2018-09-24T01:52:46.339Z,99.90
2018-09-24T01:55:14.863Z,99.90
2018-09-24T01:57:43.370Z,99.90
2018-09-24T02:00:11.856Z,99.90
2018-09-24T02:02:40.352Z,99.90
2018-09-24T02:05:14.712Z,99.90
2018-09-24T02:07:43.241Z,99.90
2018-09-24T02:10:11.715Z,99.90
2018-09-24T02:12:40.212Z,99.90
2018-09-24T02:15:08.732Z,99.90
2018-09-24T02:17:37.294Z,99.90
2018-09-24T02:20:05.923Z,99.90
2018-09-24T02:22:40.967Z,99.90
2018-09-24T02:25:09.488Z,99.90
2018-09-24T02:27:38.015Z,99.90
2018-09-24T02:30:06.948Z,99.90
2018-09-24T02:32:35.436Z,99.90
2018-09-24T02:35:04.029Z,99.90
2018-09-24T02:37:32.604Z,99.90
2018-09-24T02:40:01.143Z,99.90
2018-09-24T02:42:29.701Z,99.90
2018-09-24T02:44:59.081Z,99.90
2018-09-24T02:47:32.199Z,99.90
2018-09-24T02:50:01.983Z,99.90
2018-09-24T02:52:30.520Z,99.90
2018-09-24T02:54:59.036Z,99.90
2018-09-24T02:57:27.543Z,99.90
2018-09-24T02:59:56.064Z,99.90
2018-09-24T03:02:24.539Z,99.90
2018-09-24T03:04:55.435Z,99.90
2018-09-24T03:07:24.236Z,99.90
2018-09-24T03:09:52.715Z,99.90
2018-09-24T03:12:21.247Z,99.90
2018-09-24T03:14:49.739Z,99.90
2018-09-24T03:17:19.244Z,99.90
2018-09-24T03:19:47.775Z,99.90
2018-09-24T03:22:21.597Z,99.90
2018-09-24T03:24:50.347Z,99.90
2018-09-24T03:27:18.954Z,99.90
2018-09-24T03:29:47.508Z,99.90
2018-09-24T03:32:16.027Z,99.90
2018-09-24T03:34:44.544Z,99.90
2018-09-24T03:37:13.085Z,99.90
2018-09-24T03:39:41.570Z,99.90
2018-09-24T03:42:10.099Z,99.90
2018-09-24T03:44:38.589Z,99.90
2018-09-24T03:47:07.129Z,99.90
2018-09-24T03:49:35.614Z,99.90
2018-09-24T03:52:04.183Z,99.90
2018-09-24T03:54:32.703Z,99.90
2018-09-24T03:57:01.232Z,99.90
2018-09-24T03:59:29.796Z,99.90
2018-09-24T04:01:58.303Z,99.90
2018-09-24T04:04:32.179Z,99.90
2018-09-24T04:07:06.136Z,99.90
2018-09-24T04:09:40.021Z,99.90
2018-09-24T04:12:13.945Z,99.90
2018-09-24T04:14:47.832Z,99.90
2018-09-24T04:17:21.724Z,99.90
2018-09-24T04:19:55.594Z,99.90
2018-09-24T04:22:29.360Z,99.90
2018-09-24T04:25:03.279Z,99.90
2018-09-24T04:27:37.055Z,99.90
2018-09-24T04:30:10.887Z,99.90
2018-09-24T04:32:44.789Z,99.90
2018-09-24T04:35:18.527Z,99.90
2018-09-24T04:37:52.304Z,99.90
2018-09-24T04:40:26.017Z,99.90
2018-09-24T04:42:59.807Z,99.90
2018-09-24T04:45:33.663Z,99.90
2018-09-24T04:48:07.595Z,99.90
2018-09-24T04:50:41.334Z,99.90
2018-09-24T04:53:15.252Z,99.90
2018-09-24T04:55:49.063Z,99.90
2018-09-24T04:58:22.867Z,99.90
2018-09-24T05:00:56.701Z,99.90
2018-09-24T05:03:30.552Z,99.90
2018-09-24T05:06:04.735Z,99.90
2018-09-24T05:08:38.687Z,99.90
2018-09-24T05:11:12.545Z,99.90
2018-09-24T05:13:46.439Z,99.90
2018-09-24T05:16:20.374Z,99.90
2018-09-24T05:18:54.232Z,99.90
2018-09-24T05:21:27.964Z,99.90
2018-09-24T05:24:01.767Z,99.90
2018-09-24T05:26:35.507Z,99.90
2018-09-24T05:29:09.309Z,99.90
2018-09-24T05:31:43.136Z,99.90
2018-09-24T05:34:16.981Z,99.90
2018-09-24T05:36:50.704Z,99.90
2018-09-24T05:39:24.598Z,99.90
2018-09-24T05:41:58.412Z,99.90
2018-09-24T05:44:32.015Z,99.90
2018-09-24T05:47:05.747Z,99.90
2018-09-24T05:49:39.501Z,99.90
2018-09-24T05:52:13.483Z,99.90
2018-09-24T05:54:47.182Z,99.90
2018-09-24T05:57:21.043Z,99.90
2018-09-24T05:59:54.758Z,99.90
2018-09-24T06:02:28.578Z,99.90
2018-09-24T06:05:02.508Z,99.90
2018-09-24T06:07:36.268Z,99.90
2018-09-24T06:10:10.206Z,99.90
2018-09-24T06:12:44.032Z,99.90
2018-09-24T06:15:17.748Z,99.90
2018-09-24T06:17:51.725Z,99.90
2018-09-24T06:20:25.640Z,99.90
2018-09-24T06:22:59.571Z,99.90
2018-09-24T06:25:33.548Z,99.90
2018-09-24T06:28:07.454Z,99.90
2018-09-24T06:30:41.486Z,99.90
2018-09-24T06:33:15.469Z,99.90
2018-09-24T06:35:49.394Z,99.90
2018-09-24T06:38:23.180Z,99.90
2018-09-24T06:40:57.052Z,99.90
2018-09-24T06:43:31.088Z,99.90
2018-09-24T06:46:05.015Z,99.90
2018-09-24T06:48:38.749Z,99.90
2018-09-24T06:51:12.599Z,99.90
2018-09-24T06:53:46.588Z,99.90
2018-09-24T06:56:20.471Z,99.90
2018-09-24T06:58:54.267Z,99.90
2018-09-24T07:01:27.993Z,99.90
2018-09-24T07:04:01.768Z,99.90
2018-09-24T07:06:35.684Z,99.90
2018-09-24T07:09:11.470Z,99.90
2018-09-24T07:11:45.445Z,99.90
2018-09-24T07:14:19.401Z,99.90
2018-09-24T07:16:53.361Z,99.90
2018-09-24T07:19:27.236Z,99.90
2018-09-24T07:22:01.093Z,99.90
2018-09-24T07:24:34.785Z,99.90
2018-09-24T07:27:08.760Z,99.90
2018-09-24T07:29:42.732Z,99.90
2018-09-24T07:32:16.484Z,99.90
2018-09-24T07:34:50.294Z,99.90
2018-09-24T07:37:24.053Z,99.90
2018-09-24T07:39:57.884Z,98.90
2018-09-24T07:42:31.828Z,99.90
2018-09-24T07:45:05.687Z,99.90
2018-09-24T07:47:39.598Z,99.90
2018-09-24T07:50:13.598Z,99.90
2018-09-24T07:52:47.411Z,99.90
2018-09-24T07:55:21.249Z,99.40
2018-09-24T07:57:55.022Z,94.50
2018-09-24T08:00:28.895Z,94.80
2018-09-24T08:03:02.732Z,97.20
2018-09-24T08:05:36.514Z,96.10
2018-09-24T08:08:10.384Z,97.70
2018-09-24T08:10:44.076Z,99.40
2018-09-24T08:13:18.115Z,99.90
2018-09-24T08:15:52.019Z,99.90
2018-09-24T08:18:25.856Z,99.90
2018-09-24T08:20:59.688Z,99.90
2018-09-24T08:23:33.487Z,99.90
2018-09-24T08:26:07.255Z,99.90
2018-09-24T08:28:41.047Z,99.90
2018-09-24T08:31:14.895Z,99.90
2018-09-24T08:33:48.683Z,99.90
2018-09-24T08:36:22.645Z,99.90
2018-09-24T08:38:56.660Z,99.90
2018-09-24T08:41:30.537Z,99.90
2018-09-24T08:44:04.492Z,99.90
2018-09-24T08:46:38.180Z,99.90
2018-09-24T08:49:12.080Z,99.90
2018-09-24T08:51:45.977Z,99.90
2018-09-24T08:54:19.686Z,99.90
2018-09-24T08:56:53.527Z,99.90
2018-09-24T08:59:27.243Z,99.90
2018-09-24T09:02:00.973Z,99.90
2018-09-24T09:04:34.680Z,99.90
2018-09-24T09:07:08.634Z,99.90
2018-09-24T09:09:42.532Z,99.90
2018-09-24T09:12:16.337Z,99.90
2018-09-24T09:14:50.289Z,99.90
2018-09-24T09:17:24.201Z,99.90
2018-09-24T09:19:57.944Z,99.90
2018-09-24T09:22:31.904Z,99.90
2018-09-24T09:25:05.677Z,99.90
2018-09-24T09:27:39.571Z,99.90
2018-09-24T09:30:13.784Z,99.90
2018-09-24T09:32:47.744Z,99.90
2018-09-24T09:35:21.735Z,99.90
2018-09-24T09:37:55.515Z,99.90
2018-09-24T09:40:29.332Z,99.90
2018-09-24T09:43:03.059Z,99.90
2018-09-24T09:45:36.864Z,99.90
2018-09-24T09:48:10.818Z,99.90
2018-09-24T09:50:44.647Z,99.90
2018-09-24T09:53:18.553Z,99.90
2018-09-24T09:55:52.204Z,99.90
2018-09-24T09:58:26.094Z,99.90
2018-09-24T10:00:59.983Z,99.90
2018-09-24T10:03:33.777Z,99.90
2018-09-24T10:06:07.639Z,99.90
2018-09-24T10:08:41.408Z,99.90
2018-09-24T10:11:15.263Z,99.90
2018-09-24T10:13:49.194Z,99.90
2018-09-24T10:16:23.091Z,99.90
2018-09-24T10:18:57.323Z,99.90
2018-09-24T10:21:31.065Z,99.90
2018-09-24T10:24:05.108Z,99.90
2018-09-24T10:26:38.981Z,99.90
2018-09-24T10:29:12.659Z,99.90
2018-09-24T10:31:46.422Z,99.90
2018-09-24T10:34:20.252Z,99.90
2018-09-24T10:36:54.172Z,99.90
2018-09-24T10:39:28.061Z,99.90
2018-09-24T10:42:01.709Z,97.70
2018-09-24T10:44:35.593Z,92.90
2018-09-24T10:47:09.535Z,92.30
2018-09-24T10:49:43.349Z,93.80
2018-09-24T10:52:17.249Z,85.30
2018-09-24T10:54:50.904Z,89.80
2018-09-24T10:57:24.595Z,81.50
2018-09-24T10:59:58.589Z,83.90
2018-09-24T11:02:32.287Z,89.60
2018-09-24T11:05:06.196Z,91.40
2018-09-24T11:07:39.820Z,92.00
2018-09-24T11:10:13.869Z,92.40
2018-09-24T11:12:47.829Z,94.10
2018-09-24T11:15:21.437Z,94.20
2018-09-24T11:17:55.200Z,90.00
2018-09-24T11:20:29.039Z,96.00
2018-09-24T11:23:02.899Z,94.20
2018-09-24T11:25:36.784Z,90.60
2018-09-24T11:28:10.632Z,93.10
2018-09-24T11:30:44.440Z,94.70
2018-09-24T11:33:18.288Z,93.50
2018-09-24T11:35:52.221Z,96.50
2018-09-24T11:38:26.047Z,95.40
2018-09-24T11:40:59.955Z,95.40
2018-09-24T11:43:33.784Z,92.20
2018-09-24T11:46:07.693Z,79.10
2018-09-24T11:48:41.615Z,91.10
2018-09-24T11:51:15.419Z,95.20
2018-09-24T11:53:49.103Z,95.40
2018-09-24T11:56:22.889Z,97.70
2018-09-24T11:58:56.633Z,96.90
2018-09-24T12:01:30.544Z,95.80
2018-09-24T12:04:04.445Z,96.20
2018-09-24T12:06:38.350Z,96.10
2018-09-24T12:09:14.020Z,91.80
2018-09-24T12:11:48.508Z,90.90
2018-09-24T12:14:22.453Z,86.00
2018-09-24T12:16:56.193Z,76.10
2018-09-24T12:19:30.336Z,80.60
2018-09-24T12:22:04.220Z,75.10
2018-09-24T12:24:38.172Z,74.00
2018-09-24T12:27:12.161Z,70.40
2018-09-24T12:29:46.010Z,74.40
2018-09-24T12:32:19.969Z,70.70
2018-09-24T12:34:53.844Z,66.40
2018-09-24T12:37:27.833Z,64.10
2018-09-24T12:40:01.652Z,67.10
2018-09-24T12:42:35.516Z,70.20
2018-09-24T12:45:09.486Z,67.60
2018-09-24T12:47:43.492Z,60.90
2018-09-24T12:50:17.260Z,59.00
2018-09-24T12:52:51.218Z,60.90
2018-09-24T12:55:25.120Z,60.50
2018-09-24T12:57:58.917Z,61.20
2018-09-24T13:00:32.836Z,61.10
2018-09-24T13:03:06.756Z,61.90
2018-09-24T13:05:40.569Z,65.60
2018-09-24T13:08:14.418Z,64.50
2018-09-24T13:10:48.350Z,66.10
2018-09-24T13:13:22.155Z,67.00
2018-09-24T13:15:55.960Z,63.40
2018-09-24T13:18:29.867Z,63.10
2018-09-24T13:21:03.825Z,63.40
2018-09-24T13:23:37.623Z,65.50
2018-09-24T13:26:11.551Z,63.90
2018-09-24T13:28:45.565Z,62.50
2018-09-24T13:31:19.508Z,65.30
2018-09-24T13:33:53.349Z,64.60
2018-09-24T13:36:27.172Z,66.80
2018-09-24T13:39:01.028Z,63.60
2018-09-24T13:41:34.728Z,62.20
2018-09-24T13:44:08.515Z,62.20
2018-09-24T13:46:42.408Z,61.80
2018-09-24T13:49:16.123Z,60.50
2018-09-24T13:51:49.766Z,59.80
2018-09-24T13:54:23.558Z,61.70
2018-09-24T13:56:57.346Z,60.10
2018-09-24T13:59:31.112Z,58.40
2018-09-24T14:02:04.889Z,60.20
2018-09-24T14:04:38.643Z,60.00
2018-09-24T14:07:12.519Z,58.00
2018-09-24T14:09:46.251Z,54.20
2018-09-24T14:12:20.003Z,59.30
2018-09-24T14:14:53.955Z,58.00
2018-09-24T14:17:27.735Z,60.40
2018-09-24T14:20:01.644Z,53.90
2018-09-24T14:22:35.452Z,55.20
2018-09-24T14:25:09.199Z,54.00
2018-09-24T14:27:43.076Z,57.00
2018-09-24T14:30:16.834Z,56.40
2018-09-24T14:32:50.814Z,50.00
2018-09-24T14:35:24.549Z,53.30
2018-09-24T14:37:58.416Z,52.70
2018-09-24T14:40:32.199Z,54.60
2018-09-24T14:43:05.930Z,55.90
2018-09-24T14:45:39.731Z,56.40
2018-09-24T14:48:13.491Z,55.00
2018-09-24T14:50:47.325Z,53.10
2018-09-24T14:53:21.247Z,56.50
2018-09-24T14:55:55.053Z,57.80
2018-09-24T14:58:28.823Z,55.50
2018-09-24T15:01:02.561Z,57.10
2018-09-24T15:03:36.244Z,54.50
2018-09-24T15:06:10.074Z,56.00
2018-09-24T15:08:43.976Z,58.10
2018-09-24T15:11:18.714Z,56.80
2018-09-24T15:13:52.482Z,56.00
2018-09-24T15:16:26.388Z,54.60
2018-09-24T15:19:00.326Z,57.80
2018-09-24T15:21:34.189Z,55.20
2018-09-24T15:24:07.924Z,56.60
2018-09-24T15:26:41.685Z,58.90
2018-09-24T15:29:15.487Z,56.00
2018-09-24T15:31:49.447Z,56.00
2018-09-24T15:34:23.396Z,56.10
2018-09-24T15:36:57.376Z,57.10
2018-09-24T15:39:31.103Z,54.90
2018-09-24T15:42:05.020Z,53.40
2018-09-24T15:44:39.072Z,54.00
2018-09-24T15:47:14.001Z,56.60
2018-09-24T15:49:47.935Z,53.30
2018-09-24T15:52:21.755Z,56.50
2018-09-24T15:54:55.652Z,54.30
2018-09-24T15:57:29.466Z,55.60
2018-09-24T16:00:03.236Z,56.00
2018-09-24T16:02:37.096Z,55.60
2018-09-24T16:05:10.871Z,59.00
2018-09-24T16:07:44.729Z,57.70
2018-09-24T16:10:18.649Z,57.20
2018-09-24T16:12:52.389Z,57.70
2018-09-24T16:15:26.368Z,61.70
2018-09-24T16:18:00.272Z,63.00
2018-09-24T16:20:34.063Z,59.90
2018-09-24T16:23:07.953Z,62.50
2018-09-24T16:25:41.732Z,62.70
2018-09-24T16:28:15.559Z,61.20
2018-09-24T16:30:49.369Z,60.90
2018-09-24T16:33:23.444Z,57.10
2018-09-24T16:35:57.424Z,58.80
2018-09-24T16:38:31.410Z,64.60
2018-09-24T16:41:05.208Z,60.80
2018-09-24T16:43:39.131Z,64.80
2018-09-24T16:46:13.020Z,64.40
2018-09-24T16:48:46.855Z,63.90
2018-09-24T16:51:20.545Z,66.90
2018-09-24T16:53:54.414Z,68.30
2018-09-24T16:56:28.332Z,71.50
2018-09-24T16:59:02.319Z,70.20
2018-09-24T17:01:36.092Z,73.60
2018-09-24T17:04:10.015Z,75.70
2018-09-24T17:06:43.820Z,81.80
2018-09-24T17:09:17.832Z,91.70
2018-09-24T17:11:51.888Z,94.60
2018-09-24T17:14:25.691Z,97.80
2018-09-24T17:16:59.626Z,98.20
2018-09-24T17:19:34.500Z,99.90
2018-09-24T17:22:08.379Z,99.90
2018-09-24T17:24:42.456Z,99.90
2018-09-24T17:27:16.423Z,99.90
2018-09-24T17:29:50.170Z,99.90
2018-09-24T17:32:23.909Z,98.20
2018-09-24T17:34:57.628Z,99.70
2018-09-24T17:37:31.471Z,99.90
2018-09-24T17:40:05.538Z,99.70
2018-09-24T17:42:39.287Z,99.90
2018-09-24T17:45:13.163Z,99.90
2018-09-24T17:47:46.966Z,99.90
2018-09-24T17:50:20.677Z,99.90
2018-09-24T17:52:54.554Z,99.90
2018-09-24T17:55:28.315Z,99.90
2018-09-24T17:58:02.330Z,99.90
2018-09-24T18:00:36.176Z,99.90
2018-09-24T18:03:10.135Z,99.90
2018-09-24T18:05:43.941Z,99.90
2018-09-24T18:08:17.668Z,99.90
2018-09-24T18:10:51.491Z,99.90
2018-09-24T18:13:25.476Z,99.90
2018-09-24T18:15:59.411Z,99.90
2018-09-24T18:18:33.308Z,99.90
2018-09-24T18:21:07.112Z,99.90
2018-09-24T18:23:41.009Z,99.90
2018-09-24T18:26:14.814Z,99.90
2018-09-24T18:28:48.465Z,99.90
2018-09-24T18:31:22.384Z,99.90
2018-09-24T18:33:56.248Z,99.90
2018-09-24T18:36:30.043Z,99.90
2018-09-24T18:39:03.806Z,99.90
2018-09-24T18:41:37.673Z,99.90
2018-09-24T18:44:11.514Z,99.90
2018-09-24T18:46:45.313Z,99.90
2018-09-24T18:49:19.136Z,99.90
2018-09-24T18:51:53.067Z,99.90
2018-09-24T18:54:26.798Z,99.90
2018-09-24T18:57:00.524Z,99.90
2018-09-24T18:59:34.424Z,99.90
2018-09-24T19:02:08.213Z,99.90
2018-09-24T19:04:41.917Z,99.90
2018-09-24T19:07:15.744Z,99.90
2018-09-24T19:09:49.767Z,99.90
2018-09-24T19:12:23.560Z,99.90
2018-09-24T19:14:57.379Z,99.90
2018-09-24T19:17:31.237Z,99.90
2018-09-24T19:20:05.165Z,99.90
2018-09-24T19:22:38.851Z,99.90
2018-09-24T19:25:12.720Z,99.90
2018-09-24T19:27:46.438Z,99.90
2018-09-24T19:30:20.079Z,99.90
2018-09-24T19:32:54.007Z,99.90
2018-09-24T19:35:34.645Z,99.90
2018-09-24T19:38:08.472Z,99.90
2018-09-24T19:40:42.448Z,99.90
2018-09-24T19:43:16.366Z,99.90
2018-09-24T19:45:50.076Z,99.90
2018-09-24T19:48:23.917Z,99.90
2018-09-24T19:50:57.865Z,99.90
2018-09-24T19:53:31.578Z,99.90
2018-09-24T19:56:05.587Z,99.90
2018-09-24T19:58:39.577Z,99.90
2018-09-24T20:01:13.525Z,99.90
2018-09-24T20:03:47.492Z,99.90
2018-09-24T20:06:21.356Z,99.90
2018-09-24T20:08:55.163Z,99.90
2018-09-24T20:11:29.091Z,99.90
2018-09-24T20:14:03.024Z,99.90
2018-09-24T20:16:37.064Z,99.90
2018-09-24T20:19:11.018Z,99.90
2018-09-24T20:21:44.929Z,99.90
2018-09-24T20:24:18.869Z,99.90
2018-09-24T20:26:52.738Z,99.90
2018-09-24T20:29:26.528Z,99.90
2018-09-24T20:32:00.450Z,99.90
2018-09-24T20:34:34.412Z,99.90
2018-09-24T20:37:08.313Z,99.90
2018-09-24T20:39:42.197Z,99.90
2018-09-24T20:42:15.969Z,99.90
2018-09-24T20:44:49.783Z,99.90
2018-09-24T20:47:23.503Z,99.90
2018-09-24T20:49:57.514Z,99.90
2018-09-24T20:52:31.331Z,99.90
2018-09-24T20:55:05.226Z,99.90
2018-09-24T20:57:39.076Z,99.90
2018-09-24T21:00:12.913Z,99.90
2018-09-24T21:02:46.772Z,99.90
2018-09-24T21:05:20.579Z,99.90
2018-09-24T21:07:54.394Z,99.90
2018-09-24T21:10:28.213Z,99.90
2018-09-24T21:13:02.068Z,99.90
2018-09-24T21:15:35.768Z,99.90
2018-09-24T21:18:09.606Z,99.90
2018-09-24T21:20:43.465Z,99.90
2018-09-24T21:23:17.260Z,99.90
2018-09-24T21:25:51.059Z,99.90
2018-09-24T21:28:24.895Z,99.90
2018-09-24T21:30:58.857Z,99.90
2018-09-24T21:33:32.626Z,99.90
2018-09-24T21:36:06.592Z,99.90
2018-09-24T21:38:40.292Z,99.90
2018-09-24T21:41:14.265Z,99.90
2018-09-24T21:43:47.984Z,99.90
2018-09-24T21:46:22.057Z,99.90
2018-09-24T21:49:02.224Z,99.90
2018-09-24T21:51:35.984Z,99.90
2018-09-24T21:54:09.885Z,99.90
2018-09-24T21:56:43.590Z,99.90
2018-09-24T21:59:17.360Z,99.90
2018-09-24T22:01:51.168Z,99.90
2018-09-24T22:04:25.050Z,99.90
2018-09-24T22:07:05.299Z,99.90
2018-09-24T22:09:39.270Z,99.90
2018-09-24T22:12:13.099Z,99.90
2018-09-24T22:14:46.896Z,99.90
2018-09-24T22:17:20.600Z,99.90
2018-09-24T22:19:54.488Z,99.90
2018-09-24T22:22:28.469Z,99.90
2018-09-24T22:25:02.224Z,99.90
2018-09-24T22:27:36.093Z,99.90
2018-09-24T22:30:10.577Z,99.90
2018-09-24T22:32:44.439Z,99.90
2018-09-24T22:35:18.393Z,99.90
2018-09-24T22:37:52.020Z,99.90
2018-09-24T22:40:25.643Z,99.90
2018-09-24T22:42:59.628Z,99.90
2018-09-24T22:45:33.489Z,99.90
2018-09-24T22:48:07.232Z,99.90
2018-09-24T22:50:41.209Z,99.90
2018-09-24T22:53:14.982Z,99.90
2018-09-24T22:55:48.962Z,99.90
2018-09-24T22:58:22.793Z,99.90
2018-09-24T23:00:56.504Z,99.90
2018-09-24T23:03:30.403Z,99.90
2018-09-24T23:06:04.092Z,99.90
2018-09-24T23:08:38.010Z,99.90
2018-09-24T23:11:12.107Z,99.90
2018-09-24T23:13:46.067Z,99.90
2018-09-24T23:16:20.013Z,99.90
2018-09-24T23:18:53.776Z,99.90
2018-09-24T23:21:27.580Z,99.90
2018-09-24T23:24:01.464Z,99.90
2018-09-24T23:26:35.298Z,99.90
2018-09-24T23:29:09.206Z,99.90
2018-09-24T23:31:43.060Z,99.90
2018-09-24T23:34:16.860Z,99.90
2018-09-24T23:36:50.632Z,99.90
2018-09-24T23:39:24.558Z,99.90
2018-09-24T23:41:58.520Z,99.90
2018-09-24T23:44:32.297Z,99.90
2018-09-24T23:47:06.205Z,99.90
2018-09-24T23:49:40.023Z,99.90
2018-09-24T23:52:13.879Z,99.90
2018-09-24T23:54:47.653Z,99.90
2018-09-24T23:57:21.572Z,99.90
2018-09-24T23:59:55.411Z,99.90
